»·PEaware :: N160EJ KBFL-KMHV

N160EJ :: KBFL-KMHV

FLIGHT INFORMATION

Flight Status: Arrived
Operator: Privately registered:
United States
More flights under this callsign
Pilot: Joe I. (16950)
Aircraft: CESSNA 172 SKYHAWK
(C172)
More flights by this aircraft type
Origin: KBFL Meadows
United States
Destination: KMHV Mojave
United States
More flights between these airports :: More routes between these airports
Route: +
File this flight plan on PilotEdge
Remarks: CAT6
Altitude:
(Current/Filed)
7,500ft
Speed:
(Current/Filed)
0kts
Departed: 29-Dec-17 10:28 PM
Arrived: 29-Dec-17 11:04 PM
Distance/Time
Traveled:
50nm/0:36
Distance/Time
To Go:
Arrived

Flight Plot

Page will automatically refresh every two minutes.


Map Options




Map Legend


Flown Route
Filed Route
Departure Airport
Arrival Airport
Navaid (VOR, NDB)
Fix

Horizontal Profiles

Position Reports

Time Latitude Longitude Heading Altitude Ground
Speed
29-Dec-17 22:20 35.429338 -119.046518 310 494ft 0kts
29-Dec-17 22:21 35.429338 -119.046518 310 494ft 0kts
29-Dec-17 22:22 35.429342 -119.046523 309 494ft 0kts
29-Dec-17 22:23 35.428490 -119.047126 199 489ft 12kts
29-Dec-17 22:24 35.425834 -119.044632 202 480ft 8kts
29-Dec-17 22:25 35.425743 -119.044705 216 480ft 0kts
29-Dec-17 22:26 35.425743 -119.044705 216 480ft 0kts
29-Dec-17 22:27 35.425743 -119.044705 216 480ft 0kts
29-Dec-17 22:28 35.425723 -119.044725 220 480ft 0kts
29-Dec-17 22:29 35.425695 -119.044759 228 479ft 0kts
29-Dec-17 22:30 35.425695 -119.044759 228 479ft 0kts
29-Dec-17 22:31 35.425695 -119.044759 228 479ft 0kts
29-Dec-17 22:32 35.425695 -119.044760 228 479ft 0kts
29-Dec-17 22:33 35.425673 -119.044790 227 479ft 0kts
29-Dec-17 22:34 35.427913 -119.049280 328 480ft 64kts
29-Dec-17 22:35 35.445650 -119.071170 312 1140ft 95kts
29-Dec-17 22:36 35.461917 -119.094090 309 2262ft 87kts
29-Dec-17 22:37 35.476697 -119.116441 305 3289ft 86kts
29-Dec-17 22:38 35.489270 -119.140703 305 4336ft 76kts
29-Dec-17 22:39 35.499917 -119.127980 76 5259ft 76kts
29-Dec-17 22:40 35.495509 -119.106425 115 6073ft 82kts
29-Dec-17 22:41 35.487084 -119.079803 109 6866ft 85kts
29-Dec-17 22:42 35.474157 -119.049596 117 7111ft 119kts
29-Dec-17 22:43 35.457807 -119.014479 123 7282ft 125kts
29-Dec-17 22:44 35.439502 -118.977291 113 7266ft 123kts
29-Dec-17 22:45 35.426961 -118.939836 108 7449ft 125kts
29-Dec-17 22:46 35.414724 -118.899669 112 7321ft 135kts
29-Dec-17 22:47 35.398441 -118.859767 118 7346ft 123kts
29-Dec-17 22:48 35.380722 -118.823728 122 7451ft 126kts
29-Dec-17 22:49 35.363316 -118.786833 118 7505ft 129kts
29-Dec-17 22:50 35.345955 -118.745517 116 7175ft 133kts
29-Dec-17 22:51 35.330298 -118.709116 119 7480ft 124kts
29-Dec-17 22:52 35.309563 -118.671298 128 7155ft 134kts
29-Dec-17 22:53 35.285871 -118.643315 141 7490ft 121kts
29-Dec-17 22:54 35.261361 -118.622549 147 8127ft 103kts
29-Dec-17 22:55 35.240522 -118.601863 113 8728ft 98kts
29-Dec-17 22:56 35.230405 -118.575460 119 9320ft 97kts
29-Dec-17 22:57 35.212899 -118.542692 124 9382ft 114kts
29-Dec-17 22:58 35.195080 -118.506899 116 9111ft 142kts
29-Dec-17 22:59 35.180914 -118.467474 107 9313ft 121kts
29-Dec-17 23:00 35.171267 -118.428166 108 9417ft 124kts
29-Dec-17 23:01 35.156063 -118.384357 115 8766ft 134kts
29-Dec-17 23:02 35.142345 -118.344120 113 8572ft 136kts
29-Dec-17 23:03 35.122651 -118.299943 118 7488ft 149kts
29-Dec-17 23:04 35.100653 -118.256504 122 6263ft 161kts
29-Dec-17 23:05 35.078634 -118.214202 119 5413ft 129kts
29-Dec-17 23:06 35.058443 -118.187072 152 5396ft 96kts
29-Dec-17 23:07 35.033542 -118.170999 151 5106ft 98kts
29-Dec-17 23:08 35.027311 -118.146554 75 4346ft 92kts
29-Dec-17 23:09 35.038754 -118.124511 333 3172ft 82kts
29-Dec-17 23:10 35.050658 -118.138160 315 2705ft 36kts
29-Dec-17 23:11 35.057559 -118.147378 271 2740ft 29kts
29-Dec-17 23:12 35.056292 -118.150501 69 2744ft 0kts

Navigation Log

Ident Type
1. KBFL Airport
2. KMHV Airport